DTTJ/DJE METAR and TAF weather

Enter ICAO airport designator
Station Type Date Time Source
DTTJ METAR 2021/09/25 12:30 UTC NOAA

DTTJ 251230Z 02008KT CAVOK 35/22 Q1016 NOSIG


Station Type Date Time Source
DTTJ Decoded METAR 2021/09/25 12:30 UTC NOAA

Djerba Mellita, Tunisia (DTTJ) 33-52N 010-46E 4M
Sep 25, 2021 - 08:30 AM EDT / 2021.09.25 1230 UTC
Wind: from the NNE (020 degrees) at 9 MPH (8 KT):0
Visibility: greater than 7 mile(s):0
Temperature: 95 F (35 C)
Heat index: 102.6 F (39.2 C):1
Dew Point: 71 F (22 C)
Relative Humidity: 46%
Pressure (altimeter): 30.00 in. Hg (1016 hPa)
ob: DTTJ 251230Z 02008KT CAVOK 35/22 Q1016 NOSIG
cycle: 12

Station Type Date Time Source
DTTJ TAF 2021/09/25 12:54 UTC NOAA

TAF DTTJ 251100Z 2512/2612 36005KT 9999 SCT033 2512/2514
BECMG 09012KT

Example: see airport list